Austin, Texas
Traffic Map
Current Weather Conditions
Austin, Texas
Overcast
Overcast
67°
Feels Like: 67°
Wind Chill: 67° Ceiling: 1100
Heat Index: 67° Visibility: 10mi
Dew Point: 63° Wind: 8mph
Humidity: 87% Direction: 200° (SSW)
Pressure: 30.03in Gusts: 0mph
Raw Report DataKATT 310951Z AUTO 20007KT 10SM OVC011 19/17 A3003 RMK AO2 SLP159 T01940172 $
Traffic Incident Summary
Active as of:
Severity:
Category:
InformationThere was an issue retrieving the traffic information for this location. Please try a different location or try again shortly.
Advertisements
Track Severe Weather on mobile